Boaz, Kentucky
Current Conditions -  °F | °C
As of 10:55 AM on Monday 24 Nov 2014 (Local Time) from KM25 Reporting Station
Overcast Overcast  
Wind Chill: 40°   Ceiling: 3000
Heat Index: 46°   Visibility: 10mi
Dew Point: 36°   Wind: 15mph
Humidity: 66%   Direction: 250°WSW
Pressure: 29.78"   Gusts: 26mph
Location:  36.89°N, 88.63°W
Report Text: KM25 241655Z AUTO 25013G23KT 10SM OVC030 08/02 A2978 RMK AO2
Loading
Personal Weather Stations






























Interactive Weather Map New forecast layout! Learn more

10-Day Weather Forecast

Advertisements
Track Severe Weather on mobile